Time;durP1;ratioP1;P1;durP2;ratioP2;P2;SDS_P1;SDS_P2;PMS_P1;PMS_P2;Temp;Humidity;BMP_temperature;BMP_pressure;BME280_temperature;BME280_humidity;BME280_pressure;Samples;Min_cycle;Max_cycle;Signal;HPM_P1;HPM_P2
2023/11/23 00:02:06;;;;;;;25.17;12.37;;;;;;;;;;5010884;28;20178;-65
2023/11/23 00:04:32;;;;;;;22.40;12.53;;;;;;;;;;5032317;28;20210;-64
2023/11/23 00:06:57;;;;;;;19.67;11.40;;;;;;;;;;5030533;28;20228;-64
2023/11/23 00:09:24;;;;;;;19.00;11.57;;;;;;;;;;5023094;28;20555;-64
2023/11/23 00:11:49;;;;;;;24.77;13.37;;;;;;;;;;5010769;28;20209;-65
2023/11/23 00:14:14;;;;;;;19.93;12.37;;;;;;;;;;5027655;28;20214;-64
2023/11/23 00:16:43;;;;;;;25.53;11.40;;;;;;;;;;5013171;28;20182;-64
2023/11/23 00:19:09;;;;;;;23.47;12.10;;;;;;;;;;5034196;28;20225;-64
2023/11/23 00:21:34;;;;;;;19.50;11.13;;;;;;;;;;5033264;28;20224;-65
2023/11/23 00:24:01;;;;;;;23.77;12.00;;;;;;;;;;5032023;28;20303;-65
2023/11/23 00:26:26;;;;;;;23.17;12.93;;;;;;;;;;5007041;28;20670;-63
2023/11/23 00:28:51;;;;;;;22.63;12.17;;;;;;;;;;5025566;28;20234;-64
2023/11/23 00:31:17;;;;;;;19.23;12.10;;;;;;;;;;5028862;28;20178;-64
2023/11/23 00:33:42;;;;;;;21.03;12.17;;;;;;;;;;5008384;28;20202;-64
2023/11/23 00:36:08;;;;;;;18.63;10.77;;;;;;;;;;5030801;28;20182;-65
2023/11/23 00:38:33;;;;;;;23.03;12.03;;;;;;;;;;5032803;28;20230;-63
2023/11/23 00:41:01;;;;;;;26.97;13.30;;;;;;;;;;5011453;28;20174;-64
2023/11/23 00:43:26;;;;;;;17.67;11.30;;;;;;;;;;5025719;28;20272;-64
2023/11/23 00:45:51;;;;;;;21.07;10.97;;;;;;;;;;5020568;28;20197;-63
2023/11/23 00:48:16;;;;;;;21.30;11.90;;;;;;;;;;5027124;28;21818;-63
2023/11/23 00:50:42;;;;;;;18.57;10.97;;;;;;;;;;5007729;28;20182;-63
2023/11/23 00:53:07;;;;;;;21.33;11.10;;;;;;;;;;5009942;28;20546;-64
2023/11/23 00:55:32;;;;;;;23.33;11.43;;;;;;;;;;5010620;28;20621;-64
2023/11/23 00:57:57;;;;;;;20.67;10.33;;;;;;;;;;5028536;28;20202;-64
2023/11/23 01:00:22;;;;;;;15.30;10.27;;;;;;;;;;5032796;28;20178;-65
2023/11/23 01:02:48;;;;;;;21.13;11.03;;;;;;;;;;5028837;28;20178;-65
2023/11/23 01:05:15;;;;;;;16.40;9.97;;;;;;;;;;5032764;28;20319;-65
2023/11/23 01:07:40;;;;;;;19.13;10.50;;;;;;;;;;5022957;28;20874;-65
2023/11/23 01:10:05;;;;;;;16.80;10.60;;;;;;;;;;5025339;28;20186;-65
2023/11/23 01:12:31;;;;;;;18.90;11.07;;;;;;;;;;5030234;28;20197;-65
2023/11/23 01:14:57;;;;;;;20.90;11.77;;;;;;;;;;5030684;28;20193;-64
2023/11/23 01:17:22;;;;;;;15.77;9.60;;;;;;;;;;5032361;28;20198;-65
2023/11/23 01:19:47;;;;;;;18.00;10.53;;;;;;;;;;5032003;28;20181;-65
2023/11/23 01:22:12;;;;;;;21.03;11.00;;;;;;;;;;5026958;28;20178;-65
2023/11/23 01:24:37;;;;;;;19.33;10.10;;;;;;;;;;5031343;28;20574;-64
2023/11/23 01:27:03;;;;;;;19.43;11.50;;;;;;;;;;5022192;28;20732;-65
2023/11/23 01:29:28;;;;;;;18.90;9.40;;;;;;;;;;5022347;28;20259;-65
2023/11/23 01:31:53;;;;;;;20.30;10.37;;;;;;;;;;5031681;28;20543;-63
2023/11/23 01:34:19;;;;;;;15.40;8.77;;;;;;;;;;5031140;28;20244;-64
2023/11/23 01:36:44;;;;;;;18.20;10.63;;;;;;;;;;5030242;28;20186;-64
2023/11/23 01:39:09;;;;;;;18.20;10.03;;;;;;;;;;5031712;28;20187;-67
2023/11/23 01:41:34;;;;;;;16.77;9.07;;;;;;;;;;5030526;28;20661;-63
2023/11/23 01:44:00;;;;;;;13.37;9.60;;;;;;;;;;5024415;28;20531;-64
2023/11/23 01:46:25;;;;;;;15.70;8.57;;;;;;;;;;5020269;28;20206;-65
2023/11/23 01:48:52;;;;;;;21.17;9.90;;;;;;;;;;5019210;28;20238;-64
2023/11/23 01:51:18;;;;;;;17.60;9.20;;;;;;;;;;5029045;28;20202;-64
2023/11/23 01:53:43;;;;;;;23.57;9.03;;;;;;;;;;5026171;28;20185;-64
2023/11/23 01:56:09;;;;;;;17.80;9.00;;;;;;;;;;5025100;28;20174;-65
2023/11/23 01:58:34;;;;;;;17.77;9.70;;;;;;;;;;5025166;28;20205;-65
2023/11/23 02:01:00;;;;;;;15.57;8.87;;;;;;;;;;5024654;28;20179;-64
2023/11/23 02:03:25;;;;;;;16.23;9.07;;;;;;;;;;5026894;28;20182;-64
2023/11/23 02:05:50;;;;;;;14.03;8.20;;;;;;;;;;5019333;28;20210;-64
2023/11/23 02:08:16;;;;;;;16.13;8.77;;;;;;;;;;5020948;28;20528;-64
2023/11/23 02:10:41;;;;;;;17.17;9.03;;;;;;;;;;5028549;28;20173;-65
2023/11/23 02:13:07;;;;;;;16.53;8.13;;;;;;;;;;5025920;28;20178;-65
2023/11/23 02:15:32;;;;;;;16.83;7.87;;;;;;;;;;5024879;28;20612;-64
2023/11/23 02:18:01;;;;;;;19.47;8.87;;;;;;;;;;5023330;28;20229;-64
2023/11/23 02:20:26;;;;;;;15.80;8.27;;;;;;;;;;5028025;28;20225;-64
2023/11/23 02:22:51;;;;;;;14.17;8.40;;;;;;;;;;5024383;28;20489;-64
2023/11/23 02:25:17;;;;;;;13.17;8.93;;;;;;;;;;5021771;28;20241;-65
2023/11/23 02:27:42;;;;;;;15.57;8.90;;;;;;;;;;5022142;28;20201;-65
2023/11/23 02:30:08;;;;;;;12.40;8.13;;;;;;;;;;5025485;28;20680;-65
2023/11/23 02:32:33;;;;;;;13.30;7.63;;;;;;;;;;5008761;28;20642;-65
2023/11/23 02:34:58;;;;;;;14.67;8.70;;;;;;;;;;5021414;28;20183;-65
2023/11/23 02:37:24;;;;;;;15.50;8.17;;;;;;;;;;5028630;28;20574;-65
2023/11/23 02:39:50;;;;;;;17.37;8.67;;;;;;;;;;5003833;28;20183;-65
2023/11/23 02:42:15;;;;;;;16.77;8.37;;;;;;;;;;5023399;28;20189;-65
2023/11/23 02:44:40;;;;;;;16.20;8.07;;;;;;;;;;5015243;28;20213;-65
2023/11/23 02:47:05;;;;;;;13.55;7.80;;;;;;;;;;5039698;22;20693;-68
2023/11/23 02:49:31;;;;;;;12.13;7.30;;;;;;;;;;5049569;28;20898;-65
2023/11/23 02:51:57;;;;;;;13.47;6.57;;;;;;;;;;5040237;28;20225;-66
2023/11/23 02:54:22;;;;;;;12.77;8.20;;;;;;;;;;5043807;28;20175;-65
2023/11/23 02:56:47;;;;;;;17.07;7.77;;;;;;;;;;5034694;28;20185;-67
2023/11/23 02:59:13;;;;;;;23.00;8.67;;;;;;;;;;5031470;28;20194;-67
2023/11/23 03:01:39;;;;;;;13.67;7.33;;;;;;;;;;5031115;28;20166;-67
2023/11/23 03:04:04;;;;;;;14.83;7.00;;;;;;;;;;5023236;28;20249;-67
2023/11/23 03:06:30;;;;;;;18.20;7.57;;;;;;;;;;5006000;28;20186;-67
2023/11/23 03:08:56;;;;;;;12.67;6.27;;;;;;;;;;5029041;28;20693;-67
2023/11/23 03:11:21;;;;;;;15.33;6.90;;;;;;;;;;5030248;28;20202;-66
2023/11/23 03:13:47;;;;;;;15.97;6.30;;;;;;;;;;5029833;28;20185;-67
2023/11/23 03:16:12;;;;;;;17.13;6.37;;;;;;;;;;5028604;28;20200;-67
2023/11/23 03:18:38;;;;;;;12.77;6.37;;;;;;;;;;5029934;28;20728;-67
2023/11/23 03:21:03;;;;;;;16.17;6.00;;;;;;;;;;5024431;28;20265;-66
2023/11/23 03:23:29;;;;;;;14.43;5.47;;;;;;;;;;5027992;28;20219;-66
2023/11/23 03:25:54;;;;;;;10.73;5.43;;;;;;;;;;5027154;28;20209;-66
2023/11/23 03:28:19;;;;;;;11.00;5.77;;;;;;;;;;5030698;28;20236;-66
2023/11/23 03:30:44;;;;;;;12.90;5.27;;;;;;;;;;5030166;28;20257;-68
2023/11/23 03:33:10;;;;;;;14.50;5.77;;;;;;;;;;5030978;28;20252;-67
2023/11/23 03:35:36;;;;;;;13.90;5.13;;;;;;;;;;5030693;28;20178;-67
2023/11/23 03:38:03;;;;;;;10.10;5.00;;;;;;;;;;5028655;28;20210;-67
2023/11/23 03:40:28;;;;;;;11.10;4.97;;;;;;;;;;5027029;28;20178;-67
2023/11/23 03:42:53;;;;;;;19.30;6.50;;;;;;;;;;5025805;28;20185;-67
2023/11/23 03:45:18;;;;;;;15.50;4.60;;;;;;;;;;5026527;28;20194;-67
2023/11/23 03:47:43;;;;;;;12.20;4.40;;;;;;;;;;5021408;28;20214;-67
2023/11/23 03:50:09;;;;;;;15.93;4.43;;;;;;;;;;5030811;28;20170;-67
2023/11/23 03:52:34;;;;;;;10.63;4.93;;;;;;;;;;5032938;28;20167;-68
2023/11/23 03:54:59;;;;;;;11.30;4.10;;;;;;;;;;5034310;28;20182;-67
2023/11/23 03:57:24;;;;;;;9.33;4.10;;;;;;;;;;5033794;28;20198;-67
2023/11/23 03:59:49;;;;;;;7.17;3.57;;;;;;;;;;5025251;28;20193;-67
2023/11/23 04:02:15;;;;;;;8.80;5.13;;;;;;;;;;5026364;28;20570;-67
2023/11/23 04:04:40;;;;;;;11.17;4.00;;;;;;;;;;5034166;28;20242;-67
2023/11/23 04:07:05;;;;;;;13.20;3.97;;;;;;;;;;5026853;28;20177;-67
2023/11/23 04:09:30;;;;;;;13.50;4.17;;;;;;;;;;5034042;28;20170;-67
2023/11/23 04:11:56;;;;;;;11.63;5.23;;;;;;;;;;5033324;28;20185;-67
2023/11/23 04:14:21;;;;;;;9.43;4.83;;;;;;;;;;5032827;28;20178;-67
2023/11/23 04:16:46;;;;;;;11.30;3.90;;;;;;;;;;5022874;28;20597;-66
2023/11/23 04:19:11;;;;;;;11.13;4.00;;;;;;;;;;5027317;28;20206;-67
2023/11/23 04:21:36;;;;;;;10.47;4.07;;;;;;;;;;5031408;28;20185;-67
2023/11/23 04:24:02;;;;;;;6.87;3.73;;;;;;;;;;5033333;28;20202;-66
2023/11/23 04:26:28;;;;;;;14.17;4.10;;;;;;;;;;5029191;28;20182;-67
2023/11/23 04:28:53;;;;;;;11.77;4.50;;;;;;;;;;5030190;28;20244;-67
2023/11/23 04:31:18;;;;;;;6.03;3.77;;;;;;;;;;5011792;28;20261;-67
2023/11/23 04:33:44;;;;;;;15.03;4.60;;;;;;;;;;5023034;28;20167;-67
2023/11/23 04:36:11;;;;;;;11.07;4.67;;;;;;;;;;5031972;28;20170;-67
2023/11/23 04:38:36;;;;;;;7.97;4.00;;;;;;;;;;5031395;28;20187;-67
2023/11/23 04:41:01;;;;;;;9.17;4.83;;;;;;;;;;5031910;28;20612;-68
2023/11/23 04:43:26;;;;;;;12.27;4.60;;;;;;;;;;5032554;28;20246;-66
2023/11/23 04:45:52;;;;;;;10.07;4.70;;;;;;;;;;5028047;28;20321;-67
2023/11/23 04:48:17;;;;;;;11.77;4.73;;;;;;;;;;5031993;28;20407;-67
2023/11/23 04:50:42;;;;;;;14.87;6.37;;;;;;;;;;5031600;28;20175;-67
2023/11/23 04:53:07;;;;;;;18.17;4.37;;;;;;;;;;5018912;28;20232;-67
2023/11/23 04:55:33;;;;;;;7.00;4.20;;;;;;;;;;5028394;28;20178;-67
2023/11/23 04:57:58;;;;;;;16.87;4.33;;;;;;;;;;5032561;28;20199;-67
2023/11/23 05:00:26;;;;;;;10.87;5.33;;;;;;;;;;5032124;28;20183;-67
2023/11/23 05:02:53;;;;;;;10.80;4.83;;;;;;;;;;5028524;28;20657;-67
2023/11/23 05:05:18;;;;;;;9.27;4.83;;;;;;;;;;5018257;28;20209;-67
2023/11/23 05:07:43;;;;;;;10.50;3.80;;;;;;;;;;5030141;28;20198;-67
2023/11/23 05:10:09;;;;;;;11.10;4.47;;;;;;;;;;5023584;28;20519;-67
2023/11/23 05:12:34;;;;;;;7.97;3.67;;;;;;;;;;5022677;28;20170;-67
2023/11/23 05:15:00;;;;;;;12.07;4.50;;;;;;;;;;5030373;28;20559;-67
2023/11/23 05:17:25;;;;;;;8.23;3.87;;;;;;;;;;5029474;28;20236;-67
2023/11/23 05:19:50;;;;;;;12.30;4.23;;;;;;;;;;5029367;28;20266;-67
2023/11/23 05:22:15;;;;;;;11.77;4.07;;;;;;;;;;5031997;28;20178;-67
2023/11/23 05:24:41;;;;;;;11.80;4.70;;;;;;;;;;5028715;28;20190;-67
2023/11/23 05:27:06;;;;;;;7.80;4.77;;;;;;;;;;5031502;28;20599;-67
2023/11/23 05:29:31;;;;;;;12.93;4.43;;;;;;;;;;5026758;28;20174;-67
2023/11/23 05:31:56;;;;;;;10.93;3.97;;;;;;;;;;5024688;28;20185;-67
2023/11/23 05:34:22;;;;;;;9.77;4.63;;;;;;;;;;5028515;28;20704;-67
2023/11/23 05:36:47;;;;;;;10.77;4.30;;;;;;;;;;5031237;28;20719;-66
2023/11/23 05:39:12;;;;;;;9.50;4.33;;;;;;;;;;5029672;28;20205;-67
2023/11/23 05:41:38;;;;;;;10.43;4.20;;;;;;;;;;5010305;28;20716;-67
2023/11/23 05:44:03;;;;;;;6.77;3.80;;;;;;;;;;5028674;28;20582;-67
2023/11/23 05:46:30;;;;;;;11.23;4.33;;;;;;;;;;5027567;28;20186;-67
2023/11/23 05:48:56;;;;;;;16.33;5.20;;;;;;;;;;5023919;28;20210;-67
2023/11/23 05:51:22;;;;;;;11.87;4.03;;;;;;;;;;5024196;28;20182;-66
2023/11/23 05:53:47;;;;;;;13.57;3.93;;;;;;;;;;5031309;28;20174;-68
2023/11/23 05:56:12;;;;;;;12.43;4.33;;;;;;;;;;5028575;28;20217;-67
2023/11/23 05:58:37;;;;;;;15.87;4.40;;;;;;;;;;5031545;28;20305;-66
2023/11/23 06:01:03;;;;;;;15.33;4.53;;;;;;;;;;5028719;28;20179;-66
2023/11/23 06:03:28;;;;;;;14.87;4.97;;;;;;;;;;5029950;28;20667;-67
2023/11/23 06:05:53;;;;;;;7.57;4.00;;;;;;;;;;5026138;28;20197;-67
2023/11/23 06:08:18;;;;;;;9.37;3.83;;;;;;;;;;5019424;28;20708;-67
2023/11/23 06:10:43;;;;;;;11.37;4.57;;;;;;;;;;5030205;28;20186;-67
2023/11/23 06:13:10;;;;;;;9.43;4.00;;;;;;;;;;5031195;28;20185;-67
2023/11/23 06:15:35;;;;;;;12.27;4.73;;;;;;;;;;5029564;28;20179;-67
2023/11/23 06:18:00;;;;;;;11.97;4.93;;;;;;;;;;5029987;28;20293;-67
2023/11/23 06:20:25;;;;;;;8.80;4.03;;;;;;;;;;5030497;28;20641;-67
2023/11/23 06:22:50;;;;;;;11.67;4.33;;;;;;;;;;5028939;28;20650;-67
2023/11/23 06:25:15;;;;;;;9.13;5.20;;;;;;;;;;5020355;28;20213;-68
2023/11/23 06:27:41;;;;;;;8.67;4.13;;;;;;;;;;5025880;28;20191;-67
2023/11/23 06:30:06;;;;;;;9.27;4.57;;;;;;;;;;5029954;28;20174;-66
2023/11/23 06:32:31;;;;;;;11.03;4.47;;;;;;;;;;5025843;28;20182;-67
2023/11/23 06:34:57;;;;;;;10.93;4.47;;;;;;;;;;5024637;28;20224;-67
2023/11/23 06:37:22;;;;;;;5.80;3.80;;;;;;;;;;5015290;28;20178;-67
2023/11/23 06:39:47;;;;;;;14.57;4.63;;;;;;;;;;5028043;28;20185;-67
2023/11/23 06:42:13;;;;;;;9.67;4.40;;;;;;;;;;5029449;28;20653;-67
2023/11/23 06:44:38;;;;;;;10.17;4.23;;;;;;;;;;5016388;28;20305;-67
2023/11/23 06:47:04;;;;;;;15.23;5.07;;;;;;;;;;5010106;28;20178;-67
2023/11/23 06:49:29;;;;;;;12.20;4.97;;;;;;;;;;5007321;28;20198;-67
2023/11/23 06:51:55;;;;;;;13.03;5.17;;;;;;;;;;5016395;28;20241;-67
2023/11/23 06:54:20;;;;;;;15.30;6.10;;;;;;;;;;5005149;28;20566;-66
2023/11/23 06:56:45;;;;;;;12.93;5.03;;;;;;;;;;5011166;28;20182;-67
2023/11/23 06:59:10;;;;;;;8.90;4.63;;;;;;;;;;5006009;28;20865;-67
2023/11/23 07:01:35;;;;;;;11.00;4.67;;;;;;;;;;5005006;28;20322;-67
2023/11/23 07:04:01;;;;;;;9.20;5.03;;;;;;;;;;5006101;28;20645;-66
2023/11/23 07:06:26;;;;;;;12.67;4.90;;;;;;;;;;5008741;28;20658;-67
2023/11/23 07:08:51;;;;;;;12.93;4.93;;;;;;;;;;5006869;28;20214;-67
2023/11/23 07:11:18;;;;;;;14.60;5.30;;;;;;;;;;5006682;28;20174;-67
2023/11/23 07:13:44;;;;;;;18.80;5.27;;;;;;;;;;5007144;28;20186;-67
2023/11/23 07:16:09;;;;;;;9.10;4.90;;;;;;;;;;5006542;28;20532;-67
2023/11/23 07:18:35;;;;;;;12.10;5.53;;;;;;;;;;5010169;28;20232;-66
2023/11/23 07:21:01;;;;;;;10.57;4.87;;;;;;;;;;5004950;28;20236;-66
2023/11/23 07:23:26;;;;;;;11.60;4.63;;;;;;;;;;5009494;28;20205;-66
2023/11/23 07:25:52;;;;;;;17.27;4.97;;;;;;;;;;5011993;28;20939;-66
2023/11/23 07:28:18;;;;;;;13.33;5.13;;;;;;;;;;5014468;28;20194;-67
2023/11/23 07:30:43;;;;;;;12.03;5.17;;;;;;;;;;5018843;28;20192;-67
2023/11/23 07:33:09;;;;;;;20.93;6.13;;;;;;;;;;5018897;28;20266;-67
2023/11/23 07:35:34;;;;;;;12.07;4.00;;;;;;;;;;5018359;28;20493;-66
2023/11/23 07:38:00;;;;;;;11.80;4.60;;;;;;;;;;5014979;28;20279;-66
2023/11/23 07:40:25;;;;;;;13.07;5.40;;;;;;;;;;5020428;28;20308;-66
2023/11/23 07:42:50;;;;;;;9.07;4.33;;;;;;;;;;5033961;28;20193;-66
2023/11/23 07:45:16;;;;;;;14.90;5.67;;;;;;;;;;5032233;28;20214;-67
2023/11/23 07:47:42;;;;;;;14.33;5.73;;;;;;;;;;5030333;28;20695;-67
2023/11/23 07:50:08;;;;;;;13.20;4.77;;;;;;;;;;5031922;28;20607;-67
2023/11/23 07:52:33;;;;;;;12.33;4.63;;;;;;;;;;5030397;28;20182;-67
2023/11/23 07:54:58;;;;;;;14.00;4.70;;;;;;;;;;5029232;28;20540;-67
2023/11/23 07:57:23;;;;;;;11.37;5.00;;;;;;;;;;5014998;28;20252;-68
2023/11/23 07:59:49;;;;;;;11.20;4.03;;;;;;;;;;5012101;28;20178;-67
2023/11/23 08:02:14;;;;;;;11.73;4.00;;;;;;;;;;5012783;28;20229;-68
2023/11/23 08:04:39;;;;;;;15.30;4.97;;;;;;;;;;5012365;28;20255;-67
2023/11/23 08:07:04;;;;;;;13.50;4.80;;;;;;;;;;5013496;28;20186;-67
2023/11/23 08:09:30;;;;;;;13.90;5.30;;;;;;;;;;5012610;28;21369;-67
2023/11/23 08:11:57;;;;;;;9.67;3.83;;;;;;;;;;5013605;28;20366;-68
2023/11/23 08:14:22;;;;;;;13.47;4.10;;;;;;;;;;5009055;28;20182;-67
2023/11/23 08:16:47;;;;;;;14.97;4.00;;;;;;;;;;5013740;28;20197;-68
2023/11/23 08:19:16;;;;;;;11.33;3.83;;;;;;;;;;5016120;28;20210;-68
2023/11/23 08:21:41;;;;;;;9.13;3.90;;;;;;;;;;5013851;28;20213;-67
2023/11/23 08:24:08;;;;;;;13.67;4.53;;;;;;;;;;5012874;28;20186;-68
2023/11/23 08:26:33;;;;;;;14.10;5.17;;;;;;;;;;5015123;28;20178;-67
2023/11/23 08:28:58;;;;;;;8.70;3.90;;;;;;;;;;5012841;28;20322;-67
2023/11/23 08:31:28;;;;;;;8.60;3.37;;;;;;;;;;5014086;28;20182;-68
2023/11/23 08:33:53;;;;;;;6.93;4.03;;;;;;;;;;5012943;28;20182;-68
2023/11/23 08:36:18;;;;;;;12.20;4.10;;;;;;;;;;5013285;28;20180;-67
2023/11/23 08:38:44;;;;;;;12.07;3.30;;;;;;;;;;5011145;28;20620;-68
2023/11/23 08:41:11;;;;;;;12.67;3.83;;;;;;;;;;5012962;28;20566;-67
2023/11/23 08:43:37;;;;;;;10.73;3.83;;;;;;;;;;5008730;28;20285;-68
2023/11/23 08:46:02;;;;;;;14.90;4.20;;;;;;;;;;5012028;28;20206;-67
2023/11/23 08:48:28;;;;;;;9.35;3.90;;;;;;;;;;5034590;22;20249;-66
2023/11/23 08:50:53;;;;;;;8.73;2.87;;;;;;;;;;5018216;28;20179;-66
2023/11/23 08:53:18;;;;;;;10.53;3.37;;;;;;;;;;5018184;28;20178;-65
2023/11/23 08:55:48;;;;;;;6.57;2.63;;;;;;;;;;5016048;28;20182;-66
2023/11/23 08:58:13;;;;;;;10.57;2.97;;;;;;;;;;5008576;28;20240;-66
2023/11/23 09:00:38;;;;;;;9.65;4.00;;;;;;;;;;4993965;28;20182;-65
2023/11/23 09:03:04;;;;;;;8.77;3.17;;;;;;;;;;4997850;28;20353;-65
2023/11/23 09:05:29;;;;;;;8.00;2.97;;;;;;;;;;4993556;28;20316;-64
2023/11/23 09:07:55;;;;;;;6.85;3.55;;;;;;;;;;4993922;28;20198;-64
2023/11/23 09:10:23;;;;;;;5.45;2.92;;;;;;;;;;4994091;28;20187;-64
2023/11/23 09:12:48;;;;;;;8.55;3.00;;;;;;;;;;4994275;28;20658;-65
2023/11/23 09:15:15;;;;;;;8.57;3.13;;;;;;;;;;4993655;28;20198;-64
2023/11/23 09:17:41;;;;;;;7.90;2.95;;;;;;;;;;4995260;28;20187;-66
2023/11/23 09:20:08;;;;;;;8.82;2.72;;;;;;;;;;4995288;28;20234;-65
2023/11/23 09:22:35;;;;;;;10.52;4.30;;;;;;;;;;4993686;28;20187;-65
2023/11/23 09:25:00;;;;;;;7.20;2.72;;;;;;;;;;4974487;28;20214;-64
2023/11/23 09:27:25;;;;;;;12.18;2.75;;;;;;;;;;4994571;28;20189;-65
2023/11/23 09:29:51;;;;;;;5.50;2.33;;;;;;;;;;4994012;28;20183;-65
2023/11/23 09:32:16;;;;;;;11.43;2.60;;;;;;;;;;4997437;28;20179;-66
2023/11/23 09:34:41;;;;;;;8.73;3.22;;;;;;;;;;4974261;28;20183;-65
2023/11/23 09:37:06;;;;;;;11.27;2.58;;;;;;;;;;4992712;28;20222;-66
2023/11/23 09:39:34;;;;;;;8.73;2.78;;;;;;;;;;4993953;28;20203;-66
2023/11/23 09:42:01;;;;;;;4.38;2.63;;;;;;;;;;4993843;28;20648;-64
2023/11/23 09:44:26;;;;;;;4.18;2.00;;;;;;;;;;4992061;28;20207;-64
2023/11/23 09:46:52;;;;;;;6.65;1.95;;;;;;;;;;4993711;28;20652;-66
2023/11/23 09:49:19;;;;;;;5.60;2.20;;;;;;;;;;4993823;28;20238;-65
2023/11/23 09:51:44;;;;;;;9.43;2.85;;;;;;;;;;4996422;28;20548;-66
2023/11/23 09:54:14;;;;;;;6.97;2.13;;;;;;;;;;4993367;28;20174;-65
2023/11/23 09:56:39;;;;;;;5.72;1.70;;;;;;;;;;4995827;28;20567;-66
2023/11/23 09:59:04;;;;;;;5.20;2.28;;;;;;;;;;4993618;28;20199;-65
2023/11/23 10:01:31;;;;;;;4.97;2.17;;;;;;;;;;4995031;28;20218;-64
2023/11/23 10:03:57;;;;;;;4.82;1.65;;;;;;;;;;4998703;28;20198;-66
2023/11/23 10:06:22;;;;;;;8.20;2.00;;;;;;;;;;4993339;28;20186;-65
2023/11/23 10:08:49;;;;;;;6.30;2.42;;;;;;;;;;4993414;28;20716;-66
2023/11/23 10:11:14;;;;;;;9.43;2.25;;;;;;;;;;4993042;28;20736;-64
2023/11/23 10:13:39;;;;;;;6.68;2.20;;;;;;;;;;4992609;28;20187;-65
2023/11/23 10:16:04;;;;;;;8.45;1.85;;;;;;;;;;5002367;28;20269;-65
2023/11/23 10:18:42;;;;;;;10.25;2.30;;;;;;;;;;4993437;28;20203;-65
2023/11/23 10:21:09;;;;;;;3.67;1.77;;;;;;;;;;4995428;28;20639;-65
2023/11/23 10:23:35;;;;;;;7.47;1.60;;;;;;;;;;4976073;28;20272;-64
2023/11/23 10:26:02;;;;;;;5.45;1.50;;;;;;;;;;4992798;28;20195;-65
2023/11/23 10:28:28;;;;;;;4.47;1.40;;;;;;;;;;4996800;28;20820;-65
2023/11/23 10:30:54;;;;;;;7.97;1.50;;;;;;;;;;5007567;28;20182;-63
2023/11/23 10:33:22;;;;;;;5.97;1.70;;;;;;;;;;5007433;28;20182;-67
2023/11/23 10:35:50;;;;;;;4.72;1.50;;;;;;;;;;5006159;28;20183;-65
2023/11/23 10:38:16;;;;;;;4.65;1.52;;;;;;;;;;5004537;28;20199;-64
2023/11/23 10:40:41;;;;;;;7.05;1.40;;;;;;;;;;4994068;28;20201;-65
2023/11/23 10:43:11;;;;;;;4.13;1.50;;;;;;;;;;4977222;28;20186;-65
2023/11/23 10:45:39;;;;;;;6.15;1.60;;;;;;;;;;4998270;28;20249;-64
2023/11/23 10:48:05;;;;;;;5.43;1.40;;;;;;;;;;4991996;28;20203;-65
2023/11/23 10:50:31;;;;;;;4.40;2.00;;;;;;;;;;5012049;28;20229;-66
2023/11/23 10:52:57;;;;;;;4.22;1.90;;;;;;;;;;5004270;28;20179;-65
2023/11/23 10:55:23;;;;;;;4.20;2.03;;;;;;;;;;4997250;28;20183;-66
2023/11/23 10:57:57;;;;;;;13.50;2.80;;;;;;;;;;4994653;28;20573;-66
2023/11/23 11:00:25;;;;;;;3.42;1.58;;;;;;;;;;4990122;28;20187;-64
2023/11/23 11:02:51;;;;;;;6.45;1.90;;;;;;;;;;4994953;28;20196;-66
2023/11/23 11:05:24;;;;;;;6.30;2.10;;;;;;;;;;4974543;28;20202;-66
2023/11/23 11:08:09;;;;;;;8.57;1.48;;;;;;;;;;4991850;28;20225;-65
2023/11/23 11:10:43;;;;;;;4.88;1.58;;;;;;;;;;4991822;28;20175;-66
2023/11/23 11:13:12;;;;;;;3.28;1.40;;;;;;;;;;4990410;28;20673;-65
2023/11/23 11:15:48;;;;;;;7.95;1.75;;;;;;;;;;4991805;28;20182;-65
2023/11/23 11:18:19;;;;;;;10.48;1.50;;;;;;;;;;4991772;28;20202;-65
2023/11/23 11:20:45;;;;;;;4.93;1.63;;;;;;;;;;4994493;28;20194;-66
2023/11/23 11:23:10;;;;;;;6.13;1.80;;;;;;;;;;4992105;28;20197;-66
2023/11/23 11:25:36;;;;;;;9.85;1.92;;;;;;;;;;4992437;28;20214;-65
2023/11/23 11:28:03;;;;;;;4.97;1.35;;;;;;;;;;4976111;28;20191;-66
2023/11/23 11:30:37;;;;;;;5.80;1.40;;;;;;;;;;4993350;28;20183;-65
2023/11/23 11:33:14;;;;;;;5.68;1.80;;;;;;;;;;4975250;28;20186;-66
2023/11/23 11:35:46;;;;;;;5.97;1.80;;;;;;;;;;4991070;28;20193;-66
2023/11/23 11:38:13;;;;;;;4.60;1.42;;;;;;;;;;4974711;28;20211;-66
2023/11/23 11:40:39;;;;;;;6.97;1.40;;;;;;;;;;4991716;28;20519;-66
2023/11/23 11:43:06;;;;;;;3.15;1.67;;;;;;;;;;4991464;28;20627;-67
2023/11/23 11:45:32;;;;;;;3.85;1.63;;;;;;;;;;4990538;28;20227;-66
2023/11/23 11:47:57;;;;;;;6.25;1.90;;;;;;;;;;4993669;28;20349;-66
2023/11/23 11:50:23;;;;;;;3.90;1.60;;;;;;;;;;4991376;28;20175;-66
2023/11/23 11:52:48;;;;;;;3.88;1.77;;;;;;;;;;4991273;28;20175;-66
2023/11/23 11:55:14;;;;;;;6.97;1.70;;;;;;;;;;4990930;28;20596;-66
2023/11/23 11:57:39;;;;;;;4.05;1.48;;;;;;;;;;5008524;28;20174;-66
2023/11/23 12:00:07;;;;;;;3.08;1.80;;;;;;;;;;4991654;28;20182;-66
2023/11/23 12:02:32;;;;;;;5.53;1.40;;;;;;;;;;4992146;28;20206;-65
2023/11/23 12:04:58;;;;;;;8.25;2.67;;;;;;;;;;4997241;28;20286;-67
2023/11/23 12:07:24;;;;;;;8.02;2.33;;;;;;;;;;4996344;28;20186;-67
2023/11/23 12:09:52;;;;;;;9.98;2.15;;;;;;;;;;4990957;28;20206;-67
2023/11/23 12:12:19;;;;;;;9.43;1.90;;;;;;;;;;4992750;28;20191;-66
2023/11/23 12:14:45;;;;;;;8.95;2.17;;;;;;;;;;5003786;28;20270;-66
2023/11/23 12:17:11;;;;;;;6.13;2.00;;;;;;;;;;4996890;28;20210;-67
2023/11/23 12:19:36;;;;;;;5.15;1.63;;;;;;;;;;5002491;28;21150;-67
2023/11/23 12:22:02;;;;;;;15.98;2.28;;;;;;;;;;4994812;28;20277;-66
2023/11/23 12:24:30;;;;;;;7.40;1.77;;;;;;;;;;4976905;28;20678;-65
2023/11/23 12:26:55;;;;;;;6.68;1.77;;;;;;;;;;4995585;28;20183;-67
2023/11/23 12:29:25;;;;;;;6.82;1.88;;;;;;;;;;4995624;28;20272;-66
2023/11/23 12:31:50;;;;;;;11.65;1.92;;;;;;;;;;4995578;28;20229;-66
2023/11/23 12:34:16;;;;;;;5.68;1.92;;;;;;;;;;4996317;28;20662;-66
2023/11/23 12:36:43;;;;;;;12.25;2.05;;;;;;;;;;4997625;28;20654;-67
2023/11/23 12:39:08;;;;;;;6.13;1.98;;;;;;;;;;4995770;28;20195;-66
2023/11/23 12:41:34;;;;;;;3.45;1.48;;;;;;;;;;4993150;28;20648;-66
2023/11/23 12:43:59;;;;;;;6.88;1.92;;;;;;;;;;4994117;28;20552;-65
2023/11/23 12:46:24;;;;;;;7.85;2.03;;;;;;;;;;4993130;28;20301;-65
2023/11/23 12:48:49;;;;;;;4.75;1.90;;;;;;;;;;4994649;28;20215;-66
2023/11/23 12:51:14;;;;;;;8.95;1.83;;;;;;;;;;4997450;28;20178;-67
2023/11/23 12:53:40;;;;;;;12.30;2.28;;;;;;;;;;4979396;28;20475;-66
2023/11/23 12:56:06;;;;;;;6.75;1.88;;;;;;;;;;4998690;28;20191;-67
2023/11/23 12:58:31;;;;;;;6.47;1.90;;;;;;;;;;4994272;28;20675;-67
2023/11/23 13:00:56;;;;;;;12.43;2.67;;;;;;;;;;4994177;28;20941;-66
2023/11/23 13:03:23;;;;;;;6.55;1.92;;;;;;;;;;4998586;28;20187;-65
2023/11/23 13:05:52;;;;;;;8.75;1.83;;;;;;;;;;4995323;28;20238;-66
2023/11/23 13:08:19;;;;;;;5.55;2.13;;;;;;;;;;4994924;28;20195;-66
2023/11/23 13:10:44;;;;;;;6.13;2.42;;;;;;;;;;4976112;28;20182;-67
2023/11/23 13:13:09;;;;;;;7.32;2.10;;;;;;;;;;4994480;28;20248;-66
2023/11/23 13:15:35;;;;;;;4.95;1.90;;;;;;;;;;4994668;28;20206;-66
2023/11/23 13:18:00;;;;;;;10.93;2.88;;;;;;;;;;4994469;28;20234;-66
2023/11/23 13:20:26;;;;;;;7.68;2.33;;;;;;;;;;4996545;28;20217;-66
2023/11/23 13:22:52;;;;;;;9.15;2.33;;;;;;;;;;4993311;28;20646;-65
2023/11/23 13:25:20;;;;;;;6.00;2.75;;;;;;;;;;4992437;28;20308;-67
2023/11/23 13:27:45;;;;;;;6.78;1.83;;;;;;;;;;4994520;28;21669;-67
2023/11/23 13:30:11;;;;;;;6.20;2.08;;;;;;;;;;5007401;28;20261;-66
2023/11/23 13:32:37;;;;;;;5.93;2.30;;;;;;;;;;4978383;28;20183;-67
2023/11/23 13:35:03;;;;;;;8.68;2.08;;;;;;;;;;4975391;28;21805;-66
2023/11/23 13:37:28;;;;;;;9.82;2.35;;;;;;;;;;4993874;28;20197;-66
2023/11/23 13:39:53;;;;;;;6.05;1.73;;;;;;;;;;4993465;28;20191;-67
2023/11/23 13:42:18;;;;;;;6.32;2.08;;;;;;;;;;5001574;28;20183;-66
2023/11/23 13:44:44;;;;;;;9.18;2.33;;;;;;;;;;4992443;28;20239;-66
2023/11/23 13:47:12;;;;;;;3.50;2.00;;;;;;;;;;4974429;28;20186;-65
2023/11/23 13:49:38;;;;;;;5.57;1.85;;;;;;;;;;4994835;28;20286;-66
2023/11/23 13:52:04;;;;;;;10.73;2.75;;;;;;;;;;4993291;28;20185;-66
2023/11/23 13:54:29;;;;;;;7.32;2.10;;;;;;;;;;4993716;28;20206;-67
2023/11/23 13:56:55;;;;;;;8.48;1.90;;;;;;;;;;4978501;28;20282;-66
2023/11/23 13:59:20;;;;;;;9.82;2.33;;;;;;;;;;4994136;28;20198;-66
2023/11/23 14:01:48;;;;;;;5.45;1.55;;;;;;;;;;4993837;28;20179;-66
2023/11/23 14:04:14;;;;;;;6.90;2.45;;;;;;;;;;5011442;28;20171;-66
2023/11/23 14:06:42;;;;;;;9.15;2.08;;;;;;;;;;5001128;28;20612;-67
2023/11/23 14:09:17;;;;;;;7.75;2.72;;;;;;;;;;4993135;28;20249;-67
2023/11/23 14:11:42;;;;;;;5.90;2.30;;;;;;;;;;4992633;28;20713;-66
2023/11/23 14:14:08;;;;;;;7.68;2.30;;;;;;;;;;4993153;28;20187;-66
2023/11/23 14:16:34;;;;;;;6.93;2.30;;;;;;;;;;4993021;28;20181;-65
2023/11/23 14:19:00;;;;;;;4.50;2.13;;;;;;;;;;4995685;28;20406;-66
2023/11/23 14:21:26;;;;;;;5.60;1.95;;;;;;;;;;4994849;28;20175;-66
2023/11/23 14:23:51;;;;;;;12.52;2.35;;;;;;;;;;4991841;28;20244;-67
2023/11/23 14:26:19;;;;;;;9.75;2.38;;;;;;;;;;4992350;28;20686;-67